Aérodrome :
LOGIN :

S'inscrire | Disclaimer

   EN    FR    IT 

 










Légende :    VFR   VFR Marginal   IFR   IFR Intensif   IFR Très Intensif
Visi : 
Plafond : 
>= 8 km
>= 3000ft
5 à 8 km
1000 à 3000 ft
1500m à 5 km
500 à 1000 ft
800 à 1500m
200 à 500 ft
< 800m
< 200 ft
Symboles :   Orages  Brouillard  Fortes neiges  Fortes précipitations  Vent > 20 kt
SIGMETs :   Divers  Orages  Givrage  Turbulence  Onde Orograph.  Cendres Volcan.






- Altitude de l'aérodrome : 7 ft
- Code IATA : XHE


LFTH - Hyeres

DERNIER METAR :
  • 230300Z AUTO 08024KT CAVOK 23/14 Q1011 BECMG 08025G35KT

METARs EXPIRÉS :
  • 230230Z AUTO 08025G38KT CAVOK 23/14 Q1011 NOSIG
  • 230200Z AUTO 08024G35KT CAVOK 23/14 Q1012 NOSIG
  • 230130Z AUTO 08023G35KT CAVOK 23/14 Q1012 NOSIG
  • 230100Z AUTO 08021G31KT CAVOK 23/14 Q1012 NOSIG
  • 230030Z AUTO 08023G35KT CAVOK 23/14 Q1013 NOSIG

TAF TAF LFTH
Valide du 23 à 03h jusqu'au 24 à 03h UTC


230200Z 2303/2403 08025G35KT CAVOK
BECMG 2309/2310 BKN020 OVC100
TEMPO 2318/2403 09025G35KT 5000 SHRA BKN015TCU OVC033



MET'MAP, la Météo Aéronautique d'un coup d'oeil ! - Copyright ORBIFLY Décembre 2007 - Disclaimer

ORBIFLY MET'MAP TEAM :

Programmation & Développement : Alexandra Zaïnal
Conception & Développement : Baudouin d'Aumeries
Co-Programmation & Développement : Marc-Olivier Méhu
Soutien technique & logistique : Manuel Goepfert

Contact : metmap@orbifly.com




SOURCES & CREDITS :

   NOAA